Time;durP1;ratioP1;P1;durP2;ratioP2;P2;SDS_P1;SDS_P2;PMS_P1;PMS_P2;Temp;Humidity;BMP_temperature;BMP_pressure;BME280_temperature;BME280_humidity;BME280_pressure;Samples;Min_cycle;Max_cycle;Signal;HPM_P1;HPM_P2
2022/08/21 00:02:03;;;;;;;59.17;41.40;;;19.00;99.90;;;;;;5039088;28;20491;-50
2022/08/21 00:04:29;;;;;;;56.87;39.53;;;19.00;99.90;;;;;;5030650;28;20249;-52
2022/08/21 00:06:55;;;;;;;59.40;39.87;;;19.00;99.90;;;;;;5031837;28;20449;-51
2022/08/21 00:09:21;;;;;;;53.80;39.20;;;19.00;99.90;;;;;;5030090;28;20442;-53
2022/08/21 00:11:47;;;;;;;57.50;39.80;;;19.00;99.90;;;;;;5033359;28;20952;-49
2022/08/21 00:14:14;;;;;;;56.90;38.63;;;19.00;99.90;;;;;;5031780;28;20677;-52
2022/08/21 00:16:40;;;;;;;55.10;39.93;;;19.00;99.90;;;;;;5029649;28;20456;-51
2022/08/21 00:19:06;;;;;;;57.03;39.60;;;19.10;99.90;;;;;;5025892;28;20438;-53
2022/08/21 00:21:34;;;;;;;58.27;40.20;;;19.00;99.90;;;;;;5026986;28;20258;-51
2022/08/21 00:23:59;;;;;;;53.83;39.77;;;19.10;99.90;;;;;;5030503;28;20844;-51
2022/08/21 00:26:26;;;;;;;57.60;39.27;;;19.10;99.90;;;;;;5030821;28;20418;-55
2022/08/21 00:28:51;;;;;;;52.07;37.50;;;19.10;99.90;;;;;;5022383;28;20207;-51
2022/08/21 00:31:18;;;;;;;53.03;38.10;;;19.20;99.90;;;;;;5028329;28;20444;-51
2022/08/21 00:33:44;;;;;;;48.40;36.03;;;19.10;99.90;;;;;;5028706;28;20238;-55
2022/08/21 00:36:10;;;;;;;58.53;40.03;;;19.10;99.90;;;;;;5032361;28;21211;-52
2022/08/21 00:38:36;;;;;;;48.40;36.27;;;19.10;99.90;;;;;;5029798;28;20858;-49
2022/08/21 00:41:04;;;;;;;53.93;37.20;;;19.10;99.90;;;;;;5021284;28;20424;-48
2022/08/21 00:43:33;;;;;;;50.90;37.97;;;19.10;99.90;;;;;;5024151;28;20438;-50
2022/08/21 00:45:59;;;;;;;49.90;34.30;;;19.10;99.90;;;;;;5025983;28;20450;-50
2022/08/21 00:48:25;;;;;;;47.73;37.10;;;19.20;99.90;;;;;;5029976;28;20527;-51
2022/08/21 00:51:03;;;;;;;52.30;37.27;;;19.10;99.90;;;;;;5027979;28;20481;-51
2022/08/21 00:53:30;;;;;;;46.27;34.63;;;19.10;99.90;;;;;;5028334;28;20472;-49
2022/08/21 00:55:56;;;;;;;50.10;35.73;;;19.10;99.90;;;;;;5021241;28;20426;-50
2022/08/21 00:58:24;;;;;;;48.70;35.77;;;19.10;99.90;;;;;;5029652;28;20543;-49
2022/08/21 01:00:50;;;;;;;46.67;35.30;;;19.10;99.90;;;;;;5032301;28;20478;-50
2022/08/21 01:03:20;;;;;;;44.13;34.43;;;19.10;99.90;;;;;;5027874;28;20499;-54
2022/08/21 01:05:46;;;;;;;47.03;35.47;;;19.20;99.90;;;;;;5028696;28;20465;-47
2022/08/21 01:08:15;;;;;;;43.60;34.80;;;19.20;99.90;;;;;;5030855;28;20488;-54
2022/08/21 01:10:41;;;;;;;43.70;34.23;;;19.20;99.90;;;;;;5020102;28;20422;-51
2022/08/21 01:13:09;;;;;;;44.90;34.70;;;19.20;99.90;;;;;;5025370;28;20838;-47
2022/08/21 01:15:38;;;;;;;46.87;34.90;;;19.20;99.90;;;;;;5024676;28;20237;-47
2022/08/21 01:18:07;;;;;;;45.83;35.63;;;19.20;99.90;;;;;;5021756;28;20434;-51
2022/08/21 01:20:33;;;;;;;47.37;34.77;;;19.10;99.90;;;;;;5030430;28;20441;-51
2022/08/21 01:23:04;;;;;;;47.20;35.63;;;19.10;99.90;;;;;;5029080;28;20444;-50
2022/08/21 01:25:31;;;;;;;47.33;36.00;;;19.10;99.90;;;;;;5029740;28;20459;-52
2022/08/21 01:27:59;;;;;;;50.47;35.30;;;19.10;99.90;;;;;;5027159;28;20801;-51
2022/08/21 01:30:27;;;;;;;49.17;38.07;;;19.10;99.90;;;;;;5027752;28;20453;-50
2022/08/21 01:32:54;;;;;;;46.03;35.07;;;19.10;99.90;;;;;;5030151;28;20816;-48
2022/08/21 01:35:20;;;;;;;50.17;37.63;;;19.10;99.90;;;;;;5028674;28;20524;-50
2022/08/21 01:37:47;;;;;;;36.33;30.50;;;19.10;99.90;;;;;;5030798;28;20979;-52
2022/08/21 01:40:15;;;;;;;33.77;26.67;;;19.00;99.90;;;;;;5027360;28;20937;-53
2022/08/21 01:42:42;;;;;;;27.13;24.03;;;19.00;99.90;;;;;;5026060;28;20469;-51
2022/08/21 01:45:09;;;;;;;29.60;24.83;;;18.90;99.90;;;;;;5026641;28;20567;-52
2022/08/21 01:47:35;;;;;;;29.03;23.00;;;18.90;99.90;;;;;;5025471;28;20516;-52
2022/08/21 01:50:02;;;;;;;25.07;22.40;;;18.80;99.90;;;;;;5018736;28;20421;-55
2022/08/21 01:52:29;;;;;;;25.53;22.30;;;18.70;99.90;;;;;;5025085;28;20445;-53
2022/08/21 01:54:54;;;;;;;21.70;19.53;;;18.60;99.90;;;;;;5028820;28;20445;-52
2022/08/21 01:57:20;;;;;;;22.73;20.27;;;18.60;99.90;;;;;;5031623;28;20480;-54
2022/08/21 01:59:46;;;;;;;20.60;18.33;;;18.60;99.90;;;;;;5030110;28;20252;-55
2022/08/21 02:02:11;;;;;;;20.33;18.23;;;18.60;99.90;;;;;;5028577;28;21023;-51
2022/08/21 02:04:37;;;;;;;21.23;19.00;;;18.60;99.90;;;;;;5029010;28;20195;-50
2022/08/21 02:08:04;;;;;;;19.63;17.83;;;18.50;99.90;;;;;;5029759;28;20191;-48
2022/08/21 02:10:32;;;;;;;19.60;17.70;;;18.50;99.90;;;;;;5012799;28;20208;-54
2022/08/21 02:13:00;;;;;;;20.47;18.27;;;18.40;99.90;;;;;;5024311;28;20500;-51
2022/08/21 02:15:26;;;;;;;21.37;19.03;;;18.40;99.90;;;;;;5026064;28;20437;-52
2022/08/21 02:17:56;;;;;;;21.77;19.47;;;18.40;99.90;;;;;;5028979;28;20782;-54
2022/08/21 02:20:31;;;;;;;21.23;18.93;;;18.40;99.90;;;;;;5028303;28;20825;-51
2022/08/21 02:22:57;;;;;;;21.77;19.67;;;18.40;99.90;;;;;;5026752;28;20432;-55
2022/08/21 02:25:25;;;;;;;20.20;18.10;;;18.40;99.90;;;;;;5027605;28;20502;-53
2022/08/21 02:27:51;;;;;;;22.00;19.63;;;18.40;99.90;;;;;;5022482;28;20193;-51
2022/08/21 02:30:26;;;;;;;22.10;19.80;;;18.30;99.90;;;;;;5029597;28;20422;-52
2022/08/21 02:32:52;;;;;;;19.70;17.60;;;18.30;99.90;;;;;;5027432;28;20800;-54
2022/08/21 02:35:18;;;;;;;20.57;18.37;;;18.30;99.90;;;;;;5027546;28;20429;-54
2022/08/21 02:37:51;;;;;;;20.70;18.70;;;18.30;99.90;;;;;;5028787;28;20195;-51
2022/08/21 02:40:19;;;;;;;21.13;19.10;;;18.30;99.90;;;;;;5014821;28;20427;-50
2022/08/21 02:42:45;;;;;;;19.77;17.63;;;18.30;99.90;;;;;;5028119;28;20425;-53
2022/08/21 02:45:13;;;;;;;21.00;18.90;;;18.20;99.90;;;;;;5028417;28;20463;-54
2022/08/21 02:47:39;;;;;;;19.13;17.13;;;18.20;99.90;;;;;;5029672;28;20186;-54
2022/08/21 02:50:06;;;;;;;19.73;16.70;;;18.30;99.90;;;;;;5022707;28;20442;-52
2022/08/21 02:52:33;;;;;;;17.63;15.83;;;18.30;99.90;;;;;;5021272;28;20207;-50
2022/08/21 02:54:58;;;;;;;18.70;16.80;;;18.30;99.90;;;;;;5021228;28;20532;-50
2022/08/21 02:57:24;;;;;;;18.23;16.43;;;18.20;99.90;;;;;;5018563;28;20564;-52
2022/08/21 02:59:50;;;;;;;18.00;16.20;;;18.30;99.90;;;;;;5027123;28;20245;-52
2022/08/21 03:02:16;;;;;;;18.63;16.00;;;18.20;99.90;;;;;;5019273;28;20191;-52
2022/08/21 03:04:41;;;;;;;18.00;16.30;;;18.20;99.90;;;;;;5025357;28;20514;-48
2022/08/21 03:07:07;;;;;;;18.57;16.77;;;18.10;99.90;;;;;;5029731;28;20193;-50
2022/08/21 03:09:32;;;;;;;19.77;17.67;;;18.10;99.90;;;;;;5027606;28;20902;-53
2022/08/21 03:11:58;;;;;;;19.50;17.40;;;18.10;99.90;;;;;;5027735;28;20211;-51
2022/08/21 03:14:23;;;;;;;19.13;16.47;;;18.20;99.90;;;;;;5022524;28;20206;-53
2022/08/21 03:16:49;;;;;;;19.63;17.53;;;18.10;99.90;;;;;;5019899;28;20286;-53
2022/08/21 03:19:15;;;;;;;20.97;18.67;;;18.20;99.90;;;;;;5028636;28;20186;-51
2022/08/21 03:21:41;;;;;;;19.63;17.40;;;18.10;99.90;;;;;;5014444;28;20186;-53
2022/08/21 03:24:06;;;;;;;19.50;17.60;;;18.20;99.90;;;;;;5026277;28;20441;-53
2022/08/21 03:26:32;;;;;;;20.60;18.40;;;18.10;99.90;;;;;;5027111;28;20178;-52
2022/08/21 03:28:58;;;;;;;20.47;17.60;;;18.20;99.90;;;;;;5024790;28;20179;-54
2022/08/21 03:31:28;;;;;;;21.03;16.97;;;18.20;99.90;;;;;;5028887;28;20417;-54
2022/08/21 03:33:54;;;;;;;25.33;18.50;;;18.10;99.90;;;;;;5027283;28;20243;-53
2022/08/21 03:36:20;;;;;;;24.13;17.80;;;18.10;99.90;;;;;;5033923;28;20412;-54
2022/08/21 03:38:46;;;;;;;19.20;17.20;;;18.10;99.90;;;;;;5031443;28;20488;-48
2022/08/21 03:41:11;;;;;;;20.10;17.87;;;18.10;99.90;;;;;;5032577;28;20657;-51
2022/08/21 03:43:38;;;;;;;20.20;17.93;;;18.10;99.90;;;;;;5029189;28;20590;-52
2022/08/21 03:46:05;;;;;;;22.23;19.93;;;18.10;99.90;;;;;;5031061;28;20288;-50
2022/08/21 03:48:32;;;;;;;20.63;18.53;;;18.10;99.90;;;;;;5029387;28;20441;-50
2022/08/21 03:50:58;;;;;;;21.17;18.93;;;18.20;99.90;;;;;;5027243;28;20429;-50
2022/08/21 03:53:24;;;;;;;27.50;20.70;;;18.20;99.90;;;;;;5030740;28;20552;-53
2022/08/21 03:55:52;;;;;;;25.63;19.20;;;18.20;99.90;;;;;;5033019;28;20417;-52
2022/08/21 03:58:20;;;;;;;26.20;20.87;;;18.20;99.90;;;;;;5032390;28;20472;-52
2022/08/21 04:00:49;;;;;;;28.63;20.07;;;18.10;99.90;;;;;;5022805;28;20978;-52
2022/08/21 04:03:16;;;;;;;23.07;20.03;;;18.10;99.90;;;;;;5031499;28;20826;-54
2022/08/21 04:05:41;;;;;;;24.37;20.47;;;18.10;99.90;;;;;;5032489;28;20437;-52
2022/08/21 04:08:08;;;;;;;23.60;19.80;;;18.10;99.90;;;;;;5032079;28;20745;-53
2022/08/21 04:10:36;;;;;;;22.80;18.80;;;18.20;99.90;;;;;;5030792;28;20433;-52
2022/08/21 04:13:03;;;;;;;23.80;20.20;;;18.10;99.90;;;;;;5029402;28;20469;-54
2022/08/21 04:15:28;;;;;;;23.00;20.30;;;18.10;99.90;;;;;;5021736;28;20438;-53
2022/08/21 04:17:54;;;;;;;23.47;19.80;;;18.00;99.90;;;;;;5032138;28;20429;-51
2022/08/21 04:20:21;;;;;;;23.07;20.37;;;18.00;99.90;;;;;;5034729;28;20178;-51
2022/08/21 04:22:48;;;;;;;26.00;18.90;;;18.10;99.90;;;;;;5030591;28;20448;-55
2022/08/21 04:25:14;;;;;;;20.50;18.23;;;18.00;99.90;;;;;;5031114;28;20449;-54
2022/08/21 04:27:40;;;;;;;21.00;18.60;;;18.00;99.90;;;;;;5032301;28;20974;-52
2022/08/21 04:30:08;;;;;;;18.93;16.93;;;18.00;99.90;;;;;;5030394;28;20441;-49
2022/08/21 04:32:35;;;;;;;19.40;17.50;;;18.00;99.90;;;;;;5032356;28;20469;-54
2022/08/21 04:35:04;;;;;;;19.07;16.87;;;18.00;99.90;;;;;;5030658;28;20434;-51
2022/08/21 04:37:30;;;;;;;21.17;18.93;;;17.90;99.90;;;;;;5031475;28;20432;-51
2022/08/21 04:39:58;;;;;;;20.13;18.00;;;17.90;99.90;;;;;;5030925;28;20441;-54
2022/08/21 04:42:24;;;;;;;19.90;17.90;;;18.00;99.90;;;;;;5030038;28;20445;-50
2022/08/21 04:44:51;;;;;;;21.50;18.67;;;18.00;99.90;;;;;;5022981;28;20452;-52
2022/08/21 04:47:17;;;;;;;20.07;17.97;;;18.00;99.90;;;;;;5031375;28;21128;-50
2022/08/21 04:49:44;;;;;;;23.40;18.67;;;18.00;99.90;;;;;;5030462;28;20442;-54
2022/08/21 04:52:11;;;;;;;20.80;17.97;;;18.00;99.90;;;;;;5032102;28;20224;-54
2022/08/21 04:54:37;;;;;;;20.23;17.23;;;18.00;99.90;;;;;;5029905;28;20797;-53
2022/08/21 04:57:07;;;;;;;22.23;18.87;;;18.10;99.90;;;;;;5029857;28;20477;-49
2022/08/21 04:59:42;;;;;;;21.80;18.63;;;18.10;99.90;;;;;;5029495;28;20495;-54
2022/08/21 05:02:09;;;;;;;21.80;17.90;;;18.10;99.90;;;;;;5029559;28;20471;-52
2022/08/21 05:04:43;;;;;;;21.50;19.20;;;18.20;99.90;;;;;;5029743;28;20440;-48
2022/08/21 05:07:18;;;;;;;20.63;17.70;;;18.20;99.90;;;;;;5031718;28;20421;-51
2022/08/21 05:09:44;;;;;;;21.20;17.90;;;18.20;99.90;;;;;;5018909;28;20437;-52
2022/08/21 05:12:10;;;;;;;19.57;17.47;;;18.20;99.90;;;;;;5023352;28;20533;-52
2022/08/21 05:14:36;;;;;;;22.27;18.70;;;18.30;99.90;;;;;;5026292;28;20191;-51
2022/08/21 05:17:02;;;;;;;21.93;19.47;;;18.20;99.90;;;;;;5030860;28;20425;-51
2022/08/21 05:19:27;;;;;;;21.27;18.70;;;18.20;99.90;;;;;;5029412;28;20441;-55
2022/08/21 05:21:53;;;;;;;19.27;17.23;;;18.20;99.90;;;;;;5031310;28;20179;-51
2022/08/21 05:24:19;;;;;;;20.27;17.90;;;18.20;99.90;;;;;;5030113;28;20179;-50
2022/08/21 05:26:45;;;;;;;21.97;18.20;;;18.20;99.90;;;;;;5032094;28;20539;-51
2022/08/21 05:29:11;;;;;;;21.17;19.00;;;18.20;99.90;;;;;;5029154;28;20202;-50
2022/08/21 05:31:38;;;;;;;20.30;18.10;;;18.30;99.90;;;;;;5030091;28;20425;-54
2022/08/21 05:34:04;;;;;;;20.97;18.77;;;18.30;99.90;;;;;;5029052;28;20465;-50
2022/08/21 05:36:30;;;;;;;20.40;17.90;;;18.40;99.90;;;;;;5030875;28;20603;-54
2022/08/21 05:38:56;;;;;;;20.57;18.37;;;18.40;99.90;;;;;;5029738;28;20426;-50
2022/08/21 05:41:22;;;;;;;19.97;17.97;;;18.50;99.90;;;;;;5031834;28;20496;-51
2022/08/21 05:43:47;;;;;;;20.60;17.80;;;18.60;99.90;;;;;;5025938;28;20450;-50
2022/08/21 05:46:13;;;;;;;20.80;18.50;;;18.50;99.90;;;;;;5026580;28;20927;-51
2022/08/21 05:48:39;;;;;;;19.20;17.10;;;18.60;99.90;;;;;;5031029;28;20197;-52
2022/08/21 05:51:10;;;;;;;21.50;19.20;;;18.60;99.90;;;;;;5031154;28;20186;-52
2022/08/21 05:53:36;;;;;;;20.50;18.40;;;18.70;99.90;;;;;;5028379;28;20293;-50
2022/08/21 05:56:03;;;;;;;19.10;17.17;;;18.70;99.90;;;;;;5029392;28;20457;-51
2022/08/21 05:58:30;;;;;;;20.40;17.77;;;18.70;99.90;;;;;;5029173;28;20500;-53
2022/08/21 06:00:56;;;;;;;18.87;17.03;;;18.90;99.90;;;;;;5028652;28;20501;-53
2022/08/21 06:03:25;;;;;;;19.53;17.47;;;18.90;99.90;;;;;;5028435;28;20433;-54
2022/08/21 06:05:52;;;;;;;20.50;18.33;;;18.90;99.90;;;;;;5028406;28;20212;-52
2022/08/21 06:08:19;;;;;;;19.83;17.83;;;18.90;99.90;;;;;;5027223;28;20445;-49
2022/08/21 06:10:46;;;;;;;18.63;16.63;;;19.00;99.90;;;;;;5028706;28;20425;-53
2022/08/21 06:13:12;;;;;;;21.77;19.50;;;19.00;99.90;;;;;;5031246;28;20505;-53
2022/08/21 06:15:38;;;;;;;19.50;17.50;;;19.10;99.90;;;;;;5036935;28;20982;-54
2022/08/21 06:18:04;;;;;;;19.93;17.67;;;19.10;99.90;;;;;;5015472;28;20446;-50
2022/08/21 06:20:29;;;;;;;18.73;16.83;;;19.10;99.90;;;;;;5012550;28;20247;-54
2022/08/21 06:22:55;;;;;;;20.53;18.33;;;19.10;99.90;;;;;;5015074;28;20541;-53
2022/08/21 06:25:21;;;;;;;20.30;18.20;;;19.20;99.90;;;;;;5019145;28;20194;-53
2022/08/21 06:27:46;;;;;;;21.10;18.90;;;19.20;99.90;;;;;;5020321;28;20197;-50
2022/08/21 06:30:13;;;;;;;18.77;16.73;;;19.20;99.90;;;;;;5006501;28;20195;-53
2022/08/21 06:32:39;;;;;;;20.83;18.67;;;19.30;99.90;;;;;;5015372;28;20202;-53
2022/08/21 06:35:05;;;;;;;21.90;19.60;;;19.40;99.90;;;;;;5005001;28;20457;-50
2022/08/21 06:37:32;;;;;;;22.93;20.20;;;19.40;99.90;;;;;;5008527;28;20179;-54
2022/08/21 06:39:58;;;;;;;21.27;19.07;;;19.40;99.90;;;;;;5019719;28;20419;-53
2022/08/21 06:42:23;;;;;;;22.17;19.87;;;19.50;99.90;;;;;;5015519;28;20433;-54
2022/08/21 06:44:49;;;;;;;24.03;19.60;;;19.60;99.90;;;;;;5010757;28;20195;-52
2022/08/21 06:47:15;;;;;;;21.63;19.53;;;19.70;99.90;;;;;;5013031;28;20178;-52
2022/08/21 06:49:41;;;;;;;21.93;19.70;;;19.70;99.90;;;;;;5001885;28;20234;-53
2022/08/21 06:52:12;;;;;;;21.83;19.67;;;19.80;99.90;;;;;;5010039;28;20830;-52
2022/08/21 06:54:38;;;;;;;23.23;20.87;;;19.90;99.90;;;;;;5008261;28;20185;-52
2022/08/21 06:57:04;;;;;;;23.13;20.73;;;20.00;99.90;;;;;;5004389;28;20476;-53
2022/08/21 06:59:29;;;;;;;22.30;20.10;;;20.10;99.90;;;;;;5014381;28;20459;-52
2022/08/21 07:01:55;;;;;;;21.47;19.37;;;20.10;99.90;;;;;;5001419;28;20184;-49
2022/08/21 07:04:21;;;;;;;22.60;20.40;;;20.20;99.90;;;;;;5010250;28;20264;-49
2022/08/21 07:06:46;;;;;;;21.93;19.83;;;20.30;99.90;;;;;;4996549;28;20689;-53
2022/08/21 07:09:12;;;;;;;22.83;20.57;;;20.40;99.90;;;;;;5004321;28;21970;-49
2022/08/21 07:11:38;;;;;;;23.30;21.00;;;20.50;99.90;;;;;;5018829;28;20201;-53
2022/08/21 07:14:04;;;;;;;22.20;20.00;;;20.60;99.90;;;;;;5019872;28;20321;-54
2022/08/21 07:16:30;;;;;;;22.33;20.20;;;20.70;99.90;;;;;;5022499;28;20449;-48
2022/08/21 07:18:55;;;;;;;24.53;22.20;;;20.80;99.90;;;;;;5021948;28;20454;-52
2022/08/21 07:21:21;;;;;;;24.90;22.60;;;20.90;99.90;;;;;;5008017;28;20179;-53
2022/08/21 07:23:49;;;;;;;24.90;22.60;;;20.80;99.90;;;;;;5011209;28;20173;-51
2022/08/21 07:26:18;;;;;;;22.03;19.93;;;20.80;99.90;;;;;;5011270;28;20499;-50
2022/08/21 07:28:43;;;;;;;23.77;21.50;;;21.00;99.90;;;;;;5007596;28;20451;-52
2022/08/21 07:31:13;;;;;;;22.93;20.70;;;21.10;99.90;;;;;;5008712;28;21369;-49
2022/08/21 07:33:39;;;;;;;22.43;20.23;;;21.20;99.90;;;;;;5007484;28;20230;-51
2022/08/21 07:36:05;;;;;;;21.40;19.50;;;21.30;99.90;;;;;;5008027;28;20444;-48
2022/08/21 07:38:31;;;;;;;22.10;20.10;;;21.40;99.90;;;;;;5006009;28;20437;-48
2022/08/21 07:40:59;;;;;;;22.13;20.13;;;21.40;99.90;;;;;;5019980;28;21189;-51
2022/08/21 07:43:25;;;;;;;21.33;19.33;;;21.50;99.90;;;;;;5020499;28;20252;-54
2022/08/21 07:45:53;;;;;;;23.27;21.37;;;21.40;99.90;;;;;;5023197;28;20416;-51
2022/08/21 07:48:18;;;;;;;22.37;20.13;;;21.30;99.90;;;;;;5020790;28;20802;-49
2022/08/21 07:50:44;;;;;;;20.60;18.70;;;21.40;99.90;;;;;;5021952;28;20437;-54
2022/08/21 07:53:10;;;;;;;20.67;18.87;;;21.40;99.90;;;;;;5015121;28;20213;-51
2022/08/21 07:55:35;;;;;;;21.07;19.07;;;21.40;99.90;;;;;;5014505;28;20282;-53
2022/08/21 07:58:01;;;;;;;21.70;19.73;;;21.40;99.90;;;;;;5005750;28;20218;-52
2022/08/21 08:00:28;;;;;;;21.17;19.17;;;21.40;99.90;;;;;;5022002;28;20185;-48
2022/08/21 08:02:55;;;;;;;21.13;19.20;;;21.40;99.90;;;;;;5016577;28;20189;-51
2022/08/21 08:05:23;;;;;;;20.67;18.87;;;21.40;99.90;;;;;;5006105;28;20434;-50
2022/08/21 08:07:49;;;;;;;19.80;18.00;;;21.40;99.90;;;;;;5030713;28;20444;-52
2022/08/21 08:10:15;;;;;;;18.47;16.77;;;21.50;99.90;;;;;;5031249;28;21107;-51
2022/08/21 08:12:42;;;;;;;20.10;18.20;;;21.60;99.90;;;;;;5010368;28;20461;-51
2022/08/21 08:15:12;;;;;;;20.13;18.33;;;21.50;99.90;;;;;;5015680;28;20440;-49
2022/08/21 08:17:38;;;;;;;20.07;18.17;;;21.40;99.90;;;;;;5019458;28;20443;-51
2022/08/21 08:20:08;;;;;;;20.60;18.60;;;21.30;99.90;;;;;;5014058;28;20464;-51
2022/08/21 08:22:35;;;;;;;21.20;19.03;;;21.30;99.90;;;;;;5012253;28;20769;-52
2022/08/21 08:25:01;;;;;;;19.57;17.77;;;21.30;99.90;;;;;;5015046;28;20436;-53
2022/08/21 08:27:27;;;;;;;20.40;18.50;;;21.40;99.90;;;;;;5016751;28;20463;-47
2022/08/21 08:29:53;;;;;;;20.70;18.90;;;21.40;99.90;;;;;;5011105;28;20577;-47
2022/08/21 08:32:19;;;;;;;18.27;16.73;;;21.50;99.90;;;;;;5005201;28;20465;-52
2022/08/21 08:34:46;;;;;;;19.20;17.50;;;21.60;99.90;;;;;;5007108;28;20978;-50
2022/08/21 08:37:13;;;;;;;19.03;17.40;;;21.70;99.90;;;;;;5005093;28;20428;-48
2022/08/21 08:39:38;;;;;;;19.33;17.73;;;21.90;99.90;;;;;;4998714;28;20448;-49
2022/08/21 08:42:12;;;;;;;17.53;16.10;;;22.00;99.90;;;;;;5013447;28;20421;-51
2022/08/21 08:44:38;;;;;;;18.43;16.83;;;22.10;99.90;;;;;;5010447;28;20175;-51
2022/08/21 08:47:05;;;;;;;18.40;16.70;;;22.10;99.90;;;;;;5010964;28;20437;-51
2022/08/21 08:49:45;;;;;;;17.60;16.10;;;22.10;99.90;;;;;;5004969;28;20414;-50
2022/08/21 08:52:22;;;;;;;17.20;15.70;;;22.20;99.90;;;;;;5017272;28;20500;-52
2022/08/21 08:55:03;;;;;;;18.73;17.13;;;22.20;99.90;;;;;;5005389;28;20420;-51
2022/08/21 08:57:31;;;;;;;17.20;15.77;;;22.20;99.90;;;;;;5004980;28;20465;-50
2022/08/21 09:00:02;;;;;;;17.97;16.47;;;22.20;99.90;;;;;;5009378;28;20432;-52
2022/08/21 09:02:28;;;;;;;18.97;17.37;;;22.30;99.90;;;;;;5006956;28;20884;-53
2022/08/21 09:04:54;;;;;;;18.13;16.63;;;22.30;99.90;;;;;;5011696;28;20435;-49
2022/08/21 09:07:31;;;;;;;18.70;17.03;;;22.40;99.90;;;;;;5013327;28;20450;-50
2022/08/21 09:10:18;;;;;;;17.00;15.60;;;22.40;99.90;;;;;;5018120;28;20476;-52
2022/08/21 09:12:50;;;;;;;19.63;17.97;;;22.50;99.90;;;;;;5005475;28;20462;-49
2022/08/21 09:15:26;;;;;;;17.90;16.30;;;22.50;99.90;;;;;;5011527;28;20510;-49
2022/08/21 09:18:17;;;;;;;16.93;15.50;;;22.60;99.90;;;;;;5027860;28;20417;-49
2022/08/21 09:21:04;;;;;;;17.70;16.10;;;22.60;99.90;;;;;;5024311;28;20438;-48
2022/08/21 09:23:48;;;;;;;16.77;15.37;;;22.60;99.90;;;;;;5027371;28;20432;-53
2022/08/21 09:26:15;;;;;;;15.90;14.70;;;22.70;99.90;;;;;;5016829;28;20532;-52
2022/08/21 09:28:41;;;;;;;16.10;14.83;;;22.60;99.90;;;;;;5029097;28;20503;-51
2022/08/21 09:31:14;;;;;;;15.20;13.90;;;22.70;99.90;;;;;;5019314;28;20936;-50
2022/08/21 09:33:39;;;;;;;14.47;13.37;;;22.90;99.90;;;;;;5020312;28;20514;-48
2022/08/21 09:36:05;;;;;;;14.37;13.03;;;22.90;99.90;;;;;;5035754;28;20469;-49
2022/08/21 09:38:37;;;;;;;13.77;12.47;;;23.20;99.90;;;;;;5020715;28;20187;-48
2022/08/21 09:41:06;;;;;;;12.40;11.40;;;23.40;99.90;;;;;;5028051;28;20438;-52
2022/08/21 09:43:33;;;;;;;13.10;11.90;;;23.50;99.90;;;;;;5019738;28;20444;-49
2022/08/21 09:46:03;;;;;;;12.83;11.70;;;23.60;99.90;;;;;;5034006;28;20456;-52
2022/08/21 09:48:29;;;;;;;11.97;11.00;;;23.60;99.90;;;;;;5030104;28;20421;-51
2022/08/21 09:51:07;;;;;;;11.97;11.00;;;23.60;99.90;;;;;;5033306;28;21355;-52
2022/08/21 09:53:34;;;;;;;9.80;8.90;;;23.50;99.90;;;;;;5026595;28;20217;-51
2022/08/21 09:58:51;;;;;;;8.40;7.70;;;23.40;99.90;;;;;;5020695;28;20954;-48
2022/08/21 10:01:23;;;;;;;8.77;8.07;;;23.40;99.90;;;;;;5026561;28;20613;-49
2022/08/21 10:04:07;;;;;;;9.87;9.07;;;23.30;99.90;;;;;;5030749;28;20432;-51
2022/08/21 10:06:34;;;;;;;9.63;8.83;;;23.20;99.90;;;;;;5026857;28;20449;-48
2022/08/21 10:09:12;;;;;;;9.30;8.50;;;23.20;99.90;;;;;;5028533;28;20460;-52
2022/08/21 10:11:39;;;;;;;8.87;8.17;;;23.20;99.90;;;;;;5018430;28;20432;-50
2022/08/21 10:14:13;;;;;;;8.30;7.60;;;23.30;99.90;;;;;;5028288;28;20473;-51
2022/08/21 10:16:57;;;;;;;8.10;7.37;;;23.30;99.90;;;;;;5018268;28;20885;-47
2022/08/21 10:19:42;;;;;;;7.90;7.30;;;23.40;99.90;;;;;;5027903;28;20430;-49
2022/08/21 10:22:11;;;;;;;7.80;7.20;;;23.60;99.90;;;;;;5023141;28;20448;-50
2022/08/21 10:25:01;;;;;;;8.70;7.90;;;23.50;99.90;;;;;;5024364;28;20924;-52
2022/08/21 10:28:00;;;;;;;8.30;7.50;;;23.70;99.90;;;;;;5019798;28;20551;-49
2022/08/21 10:30:46;;;;;;;7.40;6.90;;;23.80;99.90;;;;;;5019732;28;20431;-51
2022/08/21 10:33:43;;;;;;;7.93;7.13;;;23.90;99.90;;;;;;5027998;28;20453;-50
2022/08/21 10:36:47;;;;;;;6.97;6.47;;;23.90;99.90;;;;;;5029498;28;20432;-52
2022/08/21 10:39:33;;;;;;;9.83;7.03;;;23.90;99.90;;;;;;5034110;28;20448;-46
2022/08/21 10:42:19;;;;;;;7.50;7.00;;;23.70;99.90;;;;;;5014746;28;20493;-47
2022/08/21 10:45:08;;;;;;;7.23;6.50;;;23.90;99.90;;;;;;5029576;28;20432;-49
2022/08/21 10:47:54;;;;;;;7.60;6.90;;;23.90;99.90;;;;;;5027939;28;20480;-50
2022/08/21 10:50:41;;;;;;;6.53;6.03;;;23.90;99.90;;;;;;5029487;28;20438;-50
2022/08/21 10:53:36;;;;;;;8.20;6.20;;;23.90;99.10;;;;;;5028483;28;20515;-52
2022/08/21 10:56:15;;;;;;;6.80;6.20;;;24.10;99.50;;;;;;5027601;28;20446;-52
2022/08/21 10:58:55;;;;;;;6.67;6.20;;;24.00;97.50;;;;;;5028600;28;20491;-48
2022/08/21 11:01:30;;;;;;;7.30;6.70;;;24.20;96.60;;;;;;5027854;28;20453;-53
2022/08/21 11:04:10;;;;;;;6.47;5.93;;;24.50;96.80;;;;;;5029293;28;20441;-51
2022/08/21 11:06:40;;;;;;;12.50;5.50;;;24.60;95.60;;;;;;5028358;28;20470;-50
2022/08/21 11:09:19;;;;;;;6.57;5.93;;;24.70;95.70;;;;;;5029431;28;20573;-51
2022/08/21 11:11:55;;;;;;;6.50;5.90;;;24.90;93.40;;;;;;5027725;28;20491;-52
2022/08/21 11:14:55;;;;;;;5.40;5.00;;;25.30;94.70;;;;;;5029199;28;20579;-51
2022/08/21 11:17:42;;;;;;;7.17;6.47;;;25.40;93.60;;;;;;5012376;28;20428;-52
2022/08/21 11:20:35;;;;;;;6.37;5.87;;;25.60;92.00;;;;;;5012502;28;20429;-49
2022/08/21 11:23:11;;;;;;;6.50;5.90;;;26.10;91.30;;;;;;5025454;28;20977;-53
2022/08/21 11:26:06;;;;;;;6.50;6.00;;;26.40;90.30;;;;;;5018469;28;20432;-48
2022/08/21 11:28:54;;;;;;;6.60;5.93;;;26.50;86.40;;;;;;5018089;28;20449;-49
2022/08/21 11:31:51;;;;;;;6.27;5.50;;;26.90;79.40;;;;;;5028183;28;20443;-52
2022/08/21 11:34:40;;;;;;;5.77;5.37;;;26.80;76.40;;;;;;5028729;28;20522;-51
2022/08/21 11:37:23;;;;;;;6.30;5.90;;;26.90;77.30;;;;;;5020914;28;20637;-51
2022/08/21 11:40:19;;;;;;;7.70;5.53;;;27.10;78.00;;;;;;5021446;28;20426;-47
2022/08/21 11:43:28;;;;;;;6.43;5.93;;;27.50;74.80;;;;;;5028606;28;20433;-51
2022/08/21 11:45:58;;;;;;;6.57;5.40;;;28.30;63.00;;;;;;5027476;28;20469;-51
2022/08/21 11:48:39;;;;;;;4.80;4.40;;;28.60;63.50;;;;;;5015549;28;21109;-51
2022/08/21 11:51:11;;;;;;;4.93;4.63;;;28.90;62.70;;;;;;5028619;28;20445;-47
2022/08/21 11:53:54;;;;;;;5.23;4.73;;;29.50;59.10;;;;;;5024687;28;20480;-51
2022/08/21 11:56:38;;;;;;;5.60;5.10;;;30.20;56.50;;;;;;5031217;28;20433;-51
2022/08/21 11:59:10;;;;;;;5.93;5.47;;;30.60;53.60;;;;;;5030357;28;20502;-47
2022/08/21 12:01:44;;;;;;;4.90;4.60;;;31.00;50.40;;;;;;5027750;28;20465;-51
2022/08/21 12:04:34;;;;;;;5.60;5.20;;;31.20;51.90;;;;;;5025049;28;20440;-49
2022/08/21 12:07:29;;;;;;;4.63;4.23;;;31.20;48.30;;;;;;5032267;28;20393;-50
2022/08/21 12:09:57;;;;;;;5.73;5.27;;;31.60;46.10;;;;;;5029298;28;20437;-49
2022/08/21 12:12:26;;;;;;;5.77;5.37;;;31.80;45.30;;;;;;5031978;28;20555;-49
2022/08/21 12:15:07;;;;;;;5.87;5.47;;;32.30;43.90;;;;;;5039420;28;20437;-53
2022/08/21 12:17:39;;;;;;;5.67;5.20;;;32.20;43.10;;;;;;5023379;28;20443;-51
2022/08/21 12:20:18;;;;;;;5.20;4.90;;;32.60;45.80;;;;;;5029859;28;20965;-50
2022/08/21 12:23:12;;;;;;;4.90;4.50;;;33.30;41.40;;;;;;5024806;28;20449;-53
2022/08/21 12:25:45;;;;;;;4.73;4.33;;;33.60;38.60;;;;;;5033920;28;20473;-53
2022/08/21 12:28:22;;;;;;;5.90;4.40;;;33.90;37.60;;;;;;5031600;28;20491;-52
2022/08/21 12:30:48;;;;;;;4.80;4.40;;;33.90;34.90;;;;;;5040875;28;20424;-47
2022/08/21 12:33:31;;;;;;;5.10;4.57;;;33.90;35.50;;;;;;5049512;28;20464;-52
2022/08/21 12:36:21;;;;;;;4.43;4.00;;;34.20;38.30;;;;;;5030772;28;21169;-57
2022/08/21 12:38:55;;;;;;;4.50;4.20;;;34.80;32.00;;;;;;5031320;28;20428;-58
2022/08/21 12:41:27;;;;;;;4.73;4.43;;;35.60;32.30;;;;;;5030170;28;20445;-58
2022/08/21 12:44:17;;;;;;;4.80;4.50;;;35.40;29.30;;;;;;5031316;28;20421;-57
2022/08/21 12:46:56;;;;;;;5.13;4.83;;;34.70;28.80;;;;;;5030180;28;20483;-57
2022/08/21 12:49:30;;;;;;;4.87;4.20;;;34.30;28.40;;;;;;5031362;28;20408;-57
2022/08/21 12:52:16;;;;;;;4.90;4.50;;;33.90;30.30;;;;;;5023191;28;20469;-57